createdAt,value
2023-03-07T00:01:24.599Z,4.88
2023-03-07T00:03:52.125Z,4.70
2023-03-07T00:06:19.793Z,5.03
2023-03-07T00:08:49.816Z,4.45
2023-03-07T00:11:17.320Z,4.72
2023-03-07T00:13:46.477Z,5.05
2023-03-07T00:16:15.199Z,5.05
2023-03-07T00:18:43.777Z,5.07
2023-03-07T00:21:12.233Z,5.45
2023-03-07T00:23:41.013Z,5.47
2023-03-07T00:26:10.133Z,6.25
2023-03-07T00:28:37.595Z,5.55
2023-03-07T00:31:08.545Z,5.85
2023-03-07T00:33:36.467Z,6.05
2023-03-07T00:36:05.046Z,5.88
2023-03-07T00:38:32.940Z,5.72
2023-03-07T00:41:01.211Z,6.05
2023-03-07T00:43:29.141Z,6.45
2023-03-07T00:45:57.109Z,6.93
2023-03-07T00:48:26.228Z,6.57
2023-03-07T00:50:54.068Z,5.90
2023-03-07T00:53:22.229Z,7.40
2023-03-07T00:55:57.094Z,6.57
2023-03-07T00:58:24.830Z,7.20
2023-03-07T01:00:52.481Z,6.82
2023-03-07T01:03:20.360Z,7.63
2023-03-07T01:05:49.595Z,7.75
2023-03-07T01:08:17.274Z,8.32
2023-03-07T01:10:44.962Z,8.23
2023-03-07T01:13:13.083Z,8.43
2023-03-07T01:15:40.667Z,9.00
2023-03-07T01:18:09.029Z,8.95
2023-03-07T01:20:37.054Z,8.40
2023-03-07T01:23:06.218Z,8.40
2023-03-07T01:25:37.726Z,9.43
2023-03-07T01:28:05.210Z,8.07
2023-03-07T01:30:32.754Z,8.00
2023-03-07T01:33:00.772Z,8.63
2023-03-07T01:35:28.677Z,9.50
2023-03-07T01:37:56.491Z,9.65
2023-03-07T01:40:25.407Z,9.90
2023-03-07T01:42:54.105Z,9.95
2023-03-07T01:45:40.444Z,9.82
2023-03-07T01:48:07.959Z,9.50
2023-03-07T01:50:35.425Z,9.73
2023-03-07T01:53:02.982Z,10.35
2023-03-07T01:55:32.656Z,10.50
2023-03-07T01:58:01.237Z,10.85
2023-03-07T02:00:29.910Z,9.88
2023-03-07T02:03:02.593Z,11.00
2023-03-07T02:05:32.739Z,10.43
2023-03-07T02:08:02.078Z,9.90
2023-03-07T02:10:29.707Z,11.38
2023-03-07T02:12:58.582Z,9.57
2023-03-07T02:15:26.074Z,11.10
2023-03-07T02:17:53.720Z,11.65
2023-03-07T02:20:28.639Z,10.48
2023-03-07T02:22:56.737Z,10.57
2023-03-07T02:25:28.089Z,10.95
2023-03-07T02:27:58.236Z,10.82
2023-03-07T02:30:26.639Z,12.45
2023-03-07T02:32:54.207Z,11.90
2023-03-07T02:35:22.964Z,11.70
2023-03-07T02:37:52.163Z,12.13
2023-03-07T02:40:21.114Z,11.70
2023-03-07T02:42:48.689Z,11.90
2023-03-07T02:45:18.899Z,12.25
2023-03-07T02:47:46.704Z,12.77
2023-03-07T02:50:14.608Z,13.05
2023-03-07T02:52:42.143Z,13.82
2023-03-07T02:55:10.008Z,12.27
2023-03-07T02:57:37.562Z,14.20
2023-03-07T03:00:06.865Z,12.45
2023-03-07T03:02:35.870Z,12.95
2023-03-07T03:05:03.435Z,13.35
2023-03-07T03:07:30.946Z,13.23
2023-03-07T03:09:58.896Z,13.35
2023-03-07T03:12:26.487Z,13.80
2023-03-07T03:14:53.956Z,13.07
2023-03-07T03:17:21.458Z,13.60
2023-03-07T03:19:50.384Z,12.95
2023-03-07T03:22:17.932Z,13.80
2023-03-07T03:24:45.419Z,14.05
2023-03-07T03:27:12.878Z,13.85
2023-03-07T03:29:40.439Z,14.20
2023-03-07T03:32:08.444Z,14.32
2023-03-07T03:34:36.061Z,11.63
2023-03-07T03:37:04.942Z,12.98
2023-03-07T03:39:32.469Z,12.57
2023-03-07T03:41:59.958Z,12.40
2023-03-07T03:44:27.448Z,12.57
2023-03-07T03:46:55.688Z,14.05
2023-03-07T03:49:23.341Z,14.10
2023-03-07T03:51:50.837Z,12.15
2023-03-07T03:54:19.750Z,12.60
2023-03-07T03:56:47.212Z,12.73
2023-03-07T03:59:14.758Z,13.10
2023-03-07T04:01:42.312Z,12.73
2023-03-07T04:04:09.894Z,10.15
2023-03-07T04:06:37.384Z,13.82
2023-03-07T04:09:05.461Z,13.63
2023-03-07T04:11:34.317Z,13.82
2023-03-07T04:14:01.840Z,13.40
2023-03-07T04:16:29.603Z,12.35
2023-03-07T04:18:57.505Z,13.05
2023-03-07T04:21:24.999Z,13.27
2023-03-07T04:23:55.548Z,12.75
2023-03-07T04:26:23.131Z,12.15
2023-03-07T04:28:51.956Z,11.30
2023-03-07T04:31:20.403Z,12.05
2023-03-07T04:33:48.598Z,11.50
2023-03-07T04:36:17.244Z,11.10
2023-03-07T04:38:45.099Z,11.18
2023-03-07T04:41:13.672Z,11.20
2023-03-07T04:43:41.198Z,11.57
2023-03-07T04:46:11.208Z,12.38
2023-03-07T04:48:38.761Z,10.93
2023-03-07T04:51:06.524Z,11.25
2023-03-07T04:53:34.093Z,9.50
2023-03-07T04:56:02.189Z,10.15
2023-03-07T04:58:30.353Z,10.75
2023-03-07T05:00:57.923Z,12.02
2023-03-07T05:03:27.357Z,9.57
2023-03-07T05:05:54.861Z,9.93
2023-03-07T05:08:22.768Z,8.68
2023-03-07T05:10:50.281Z,11.23
2023-03-07T05:13:17.781Z,9.95
2023-03-07T05:15:45.306Z,10.18
2023-03-07T05:18:12.801Z,9.95
2023-03-07T05:20:43.158Z,13.82
2023-03-07T05:23:10.637Z,10.57
2023-03-07T05:25:38.269Z,12.57
2023-03-07T05:28:05.850Z,10.00
2023-03-07T05:30:33.362Z,13.98
2023-03-07T05:33:00.872Z,12.82
2023-03-07T05:35:28.372Z,11.52
2023-03-07T05:37:57.242Z,12.10
2023-03-07T05:40:24.766Z,12.48
2023-03-07T05:42:52.387Z,12.25
2023-03-07T05:45:21.065Z,12.30
2023-03-07T05:47:48.656Z,10.77
2023-03-07T05:50:16.240Z,12.15
2023-03-07T05:52:43.733Z,12.77
2023-03-07T05:55:12.781Z,12.88
2023-03-07T05:57:40.440Z,12.05
2023-03-07T06:00:09.321Z,12.27
2023-03-07T06:02:36.802Z,12.07
2023-03-07T06:05:04.325Z,9.93
2023-03-07T06:07:31.787Z,11.75
2023-03-07T06:09:59.272Z,10.82
2023-03-07T06:12:28.166Z,12.15
2023-03-07T06:14:55.686Z,10.82
2023-03-07T06:17:23.196Z,14.82
2023-03-07T06:19:50.698Z,14.48
2023-03-07T06:22:18.211Z,11.93
2023-03-07T06:24:45.823Z,8.90
2023-03-07T06:27:13.326Z,11.70
2023-03-07T06:29:42.218Z,9.70
2023-03-07T06:32:09.698Z,11.30
2023-03-07T06:34:37.933Z,13.23
2023-03-07T06:37:05.503Z,9.20
2023-03-07T06:39:33.032Z,11.70
2023-03-07T06:42:00.507Z,11.95
2023-03-07T06:44:27.993Z,10.68
2023-03-07T06:46:56.841Z,11.93
2023-03-07T06:49:24.400Z,11.45
2023-03-07T06:51:52.017Z,11.88
2023-03-07T06:54:19.519Z,10.00
2023-03-07T06:56:47.098Z,12.27
2023-03-07T06:59:14.750Z,12.80
2023-03-07T07:01:42.367Z,12.45
2023-03-07T07:04:11.585Z,9.32
2023-03-07T07:06:39.143Z,12.52
2023-03-07T07:09:06.875Z,11.95
2023-03-07T07:11:34.848Z,11.65
2023-03-07T07:14:02.363Z,10.63
2023-03-07T07:16:33.520Z,9.77
2023-03-07T07:19:01.045Z,8.98
2023-03-07T07:21:29.918Z,11.02
2023-03-07T07:23:57.448Z,10.35
2023-03-07T07:26:26.423Z,11.90
2023-03-07T07:28:53.937Z,10.75
2023-03-07T07:31:21.426Z,11.32
2023-03-07T07:33:48.977Z,11.23
2023-03-07T07:36:16.508Z,11.15
2023-03-07T07:38:45.388Z,11.85
2023-03-07T07:41:12.908Z,9.95
2023-03-07T07:43:41.641Z,11.20
2023-03-07T07:46:09.191Z,9.60
2023-03-07T07:48:36.695Z,10.65
2023-03-07T07:51:04.544Z,8.80
2023-03-07T07:53:32.390Z,10.05
2023-03-07T07:56:01.278Z,8.68
2023-03-07T07:58:28.774Z,7.40
2023-03-07T08:00:56.270Z,10.13
2023-03-07T08:03:23.810Z,8.68
2023-03-07T08:05:51.856Z,9.02
2023-03-07T08:08:20.197Z,8.77
2023-03-07T08:10:47.779Z,8.75
2023-03-07T08:13:17.686Z,9.27
2023-03-07T08:15:45.243Z,9.15
2023-03-07T08:18:13.422Z,8.27
2023-03-07T08:20:41.227Z,8.40
2023-03-07T08:23:08.874Z,7.47
2023-03-07T08:25:36.680Z,8.07
2023-03-07T08:28:05.363Z,8.55
2023-03-07T08:30:35.005Z,9.52
2023-03-07T08:33:02.691Z,7.40
2023-03-07T08:35:30.227Z,8.07
2023-03-07T08:37:59.542Z,7.32
2023-03-07T08:40:27.426Z,7.63
2023-03-07T08:42:55.204Z,8.18
2023-03-07T08:45:23.044Z,5.95
2023-03-07T08:47:54.537Z,7.78
2023-03-07T08:52:49.353Z,6.22
2023-03-07T08:55:17.764Z,7.38
2023-03-07T08:57:47.366Z,6.88
2023-03-07T09:00:15.525Z,5.20
2023-03-07T09:02:43.125Z,4.63
2023-03-07T09:05:12.142Z,6.03
2023-03-07T09:07:39.887Z,6.13
2023-03-07T09:10:07.703Z,6.22
2023-03-07T09:12:36.010Z,5.50
2023-03-07T09:15:03.636Z,5.15
2023-03-07T09:17:31.308Z,5.72
2023-03-07T09:19:59.543Z,5.13
2023-03-07T09:22:29.109Z,5.45
2023-03-07T09:24:56.564Z,6.10
2023-03-07T09:27:24.044Z,6.35
2023-03-07T09:29:51.610Z,3.85
2023-03-07T09:32:19.137Z,4.68
2023-03-07T09:34:46.639Z,4.20
2023-03-07T09:37:14.173Z,4.82
2023-03-07T09:39:42.955Z,4.00
2023-03-07T09:42:18.683Z,4.60
2023-03-07T09:44:55.113Z,4.57
2023-03-07T09:47:31.709Z,4.57
2023-03-07T09:49:59.915Z,3.67
2023-03-07T09:52:28.729Z,4.15
2023-03-07T09:55:00.087Z,2.45
2023-03-07T09:57:29.084Z,5.13
2023-03-07T09:59:57.606Z,3.40
2023-03-07T10:02:28.477Z,4.68
2023-03-07T10:05:00.047Z,3.47
2023-03-07T10:07:28.030Z,4.05
2023-03-07T10:09:58.659Z,3.08
2023-03-07T10:12:41.011Z,3.80
2023-03-07T10:15:26.417Z,3.90
2023-03-07T10:18:16.150Z,3.28
2023-03-07T10:20:46.689Z,4.30
2023-03-07T10:23:32.476Z,3.75
2023-03-07T10:26:02.850Z,3.65
2023-03-07T10:28:31.859Z,3.83
2023-03-07T10:31:00.678Z,3.38
2023-03-07T10:33:30.416Z,3.22
2023-03-07T10:36:00.080Z,3.42
2023-03-07T10:38:30.175Z,2.75
2023-03-07T10:40:58.551Z,3.92
2023-03-07T10:43:28.340Z,3.35
2023-03-07T10:45:59.673Z,4.20
2023-03-07T10:50:59.666Z,4.80
2023-03-07T10:53:28.295Z,4.38
2023-03-07T10:56:09.670Z,4.13
2023-03-07T10:58:37.272Z,4.88
2023-03-07T11:01:15.710Z,4.22
2023-03-07T11:03:53.489Z,4.18
2023-03-07T11:06:44.708Z,4.88
2023-03-07T11:09:17.815Z,3.42
2023-03-07T11:11:50.062Z,2.97
2023-03-07T11:14:18.921Z,4.05
2023-03-07T11:16:49.673Z,3.75
2023-03-07T11:19:32.479Z,2.40
2023-03-07T11:22:01.032Z,3.50
2023-03-07T11:24:30.727Z,3.47
2023-03-07T11:26:59.321Z,3.83
2023-03-07T11:29:28.307Z,3.58
2023-03-07T11:32:00.318Z,3.65
2023-03-07T11:34:32.745Z,4.40
2023-03-07T11:37:04.233Z,5.05
2023-03-07T11:42:03.965Z,3.47
2023-03-07T11:44:34.390Z,2.80
2023-03-07T11:47:13.427Z,2.35
2023-03-07T11:49:45.354Z,1.83
2023-03-07T11:52:32.987Z,2.10
2023-03-07T11:55:05.825Z,1.65
2023-03-07T11:57:46.389Z,1.80
2023-03-07T12:00:21.986Z,2.20
2023-03-07T12:02:55.434Z,1.55
2023-03-07T12:05:30.049Z,2.15
2023-03-07T12:08:06.664Z,2.42
2023-03-07T12:10:43.638Z,1.60
2023-03-07T12:13:17.255Z,2.90
2023-03-07T12:15:47.205Z,2.40
2023-03-07T12:18:32.887Z,2.70
2023-03-07T12:21:07.454Z,2.78
2023-03-07T12:23:39.077Z,3.03
2023-03-07T12:26:12.518Z,2.88
2023-03-07T12:28:44.214Z,3.15
2023-03-07T12:31:15.486Z,2.90
2023-03-07T12:36:12.854Z,1.92
2023-03-07T12:38:43.884Z,1.50
2023-03-07T12:41:20.444Z,1.25
2023-03-07T12:43:52.392Z,1.70
2023-03-07T12:46:24.336Z,1.98
2023-03-07T12:48:54.752Z,1.70
2023-03-07T12:51:26.669Z,1.80
2023-03-07T12:53:56.952Z,1.50
2023-03-07T12:56:27.507Z,1.48
2023-03-07T12:58:58.295Z,1.27
2023-03-07T13:01:28.178Z,1.40
2023-03-07T13:03:59.181Z,1.17
2023-03-07T13:06:27.464Z,1.00
2023-03-07T13:08:56.176Z,1.17
2023-03-07T13:11:25.026Z,0.98
2023-03-07T13:13:54.057Z,1.23
2023-03-07T13:16:42.627Z,1.20
2023-03-07T13:19:28.779Z,1.13
2023-03-07T13:21:56.384Z,1.23
2023-03-07T13:24:34.832Z,1.60
2023-03-07T13:27:02.409Z,1.00
2023-03-07T13:29:48.577Z,1.20
2023-03-07T13:32:31.002Z,1.00
2023-03-07T13:34:59.909Z,1.90
2023-03-07T13:37:48.722Z,1.70
2023-03-07T13:40:24.505Z,1.70
2023-03-07T13:42:52.216Z,1.40
2023-03-07T13:45:38.337Z,1.33
2023-03-07T13:48:06.314Z,1.70
2023-03-07T13:51:01.458Z,1.27
2023-03-07T13:53:34.648Z,1.17
2023-03-07T13:56:04.504Z,1.65
2023-03-07T13:58:34.757Z,1.63
2023-03-07T14:01:04.302Z,1.42
2023-03-07T14:03:33.610Z,1.52
2023-03-07T14:06:04.548Z,1.70
2023-03-07T14:08:34.861Z,1.10
2023-03-07T14:11:02.981Z,1.65
2023-03-07T14:13:45.456Z,1.45
2023-03-07T14:16:19.758Z,1.40
2023-03-07T14:18:52.017Z,1.60
2023-03-07T14:21:28.182Z,1.15
2023-03-07T14:24:16.806Z,1.27
2023-03-07T14:26:45.125Z,1.83
2023-03-07T14:29:15.444Z,1.27
2023-03-07T14:31:43.558Z,1.60
2023-03-07T14:34:17.709Z,1.95
2023-03-07T14:36:47.434Z,1.25
2023-03-07T14:39:15.663Z,1.20
2023-03-07T14:41:48.964Z,2.08
2023-03-07T14:44:27.781Z,1.73
2023-03-07T14:47:01.055Z,1.55
2023-03-07T14:49:33.162Z,1.95
2023-03-07T14:52:03.255Z,1.35
2023-03-07T14:54:32.827Z,1.33
2023-03-07T14:57:01.508Z,0.80
2023-03-07T14:59:29.674Z,0.93
2023-03-07T15:01:57.606Z,1.10
2023-03-07T15:04:26.008Z,0.80
2023-03-07T15:06:54.490Z,0.70
2023-03-07T15:09:23.739Z,1.20
2023-03-07T15:11:53.072Z,0.82
2023-03-07T15:14:22.639Z,0.93
2023-03-07T15:16:51.442Z,1.00
2023-03-07T15:19:22.011Z,0.70
2023-03-07T15:21:52.505Z,1.10
2023-03-07T15:24:22.757Z,0.88
2023-03-07T15:26:54.004Z,1.00
2023-03-07T15:29:23.209Z,0.80
2023-03-07T15:31:51.719Z,0.80
2023-03-07T15:34:23.519Z,1.00
2023-03-07T15:36:50.984Z,0.80
2023-03-07T15:39:27.724Z,0.98
2023-03-07T15:42:03.611Z,0.65
2023-03-07T15:44:31.530Z,1.15
2023-03-07T15:47:00.372Z,0.90
2023-03-07T15:49:31.695Z,0.80
2023-03-07T15:52:00.160Z,0.70
2023-03-07T15:54:33.359Z,1.30
2023-03-07T15:57:04.710Z,0.98
2023-03-07T15:59:33.822Z,0.63
2023-03-07T16:02:16.204Z,0.75
2023-03-07T16:04:43.660Z,1.02
2023-03-07T16:07:17.062Z,0.75
2023-03-07T16:09:44.584Z,0.75
2023-03-07T16:12:14.663Z,1.00
2023-03-07T16:14:42.450Z,0.73
2023-03-07T16:17:13.488Z,1.13
2023-03-07T16:19:40.950Z,1.33
2023-03-07T16:22:10.821Z,1.27
2023-03-07T16:24:38.332Z,1.38
2023-03-07T16:27:05.826Z,1.20
2023-03-07T16:29:34.710Z,1.35
2023-03-07T16:32:04.039Z,1.27
2023-03-07T16:34:31.581Z,1.55
2023-03-07T16:36:59.032Z,0.90
2023-03-07T16:39:26.568Z,1.42
2023-03-07T16:41:54.016Z,1.00
2023-03-07T16:44:23.526Z,0.70
2023-03-07T16:46:56.972Z,1.20
2023-03-07T16:49:24.471Z,1.20
2023-03-07T16:52:04.719Z,1.38
2023-03-07T16:54:32.937Z,1.05
2023-03-07T16:57:01.671Z,1.27
2023-03-07T16:59:35.518Z,1.10
2023-03-07T17:02:11.849Z,1.52
2023-03-07T17:04:39.395Z,1.42
2023-03-07T17:07:13.917Z,1.73
2023-03-07T17:09:41.541Z,1.60
2023-03-07T17:12:09.232Z,1.55
2023-03-07T17:14:37.148Z,1.42
2023-03-07T17:17:06.250Z,1.05
2023-03-07T17:19:34.153Z,1.38
2023-03-07T17:22:02.756Z,1.23
2023-03-07T17:24:30.887Z,2.00
2023-03-07T17:26:59.562Z,1.90
2023-03-07T17:29:29.291Z,1.42
2023-03-07T17:31:56.813Z,1.52
2023-03-07T17:34:26.879Z,1.63
2023-03-07T17:36:54.406Z,1.52
2023-03-07T17:39:22.607Z,2.15
2023-03-07T17:41:50.182Z,1.75
2023-03-07T17:44:18.156Z,1.65
2023-03-07T17:46:45.914Z,1.77
2023-03-07T17:49:13.612Z,1.65
2023-03-07T17:51:42.508Z,1.60
2023-03-07T17:54:10.203Z,1.80
2023-03-07T17:56:38.208Z,1.25
2023-03-07T17:59:05.751Z,1.20
2023-03-07T18:01:34.090Z,1.50
2023-03-07T18:04:01.856Z,1.42
2023-03-07T18:06:29.504Z,1.50
2023-03-07T18:08:58.481Z,1.60
2023-03-07T18:11:26.111Z,1.65
2023-03-07T18:13:53.605Z,1.50
2023-03-07T18:16:21.069Z,1.52
2023-03-07T18:18:58.944Z,1.45
2023-03-07T18:21:29.535Z,1.27
2023-03-07T18:23:59.574Z,1.13
2023-03-07T18:26:27.083Z,1.85
2023-03-07T18:28:54.686Z,1.42
2023-03-07T18:31:24.869Z,1.63
2023-03-07T18:33:53.550Z,1.33
2023-03-07T18:36:22.185Z,1.50
2023-03-07T18:38:50.055Z,1.60
2023-03-07T18:41:20.112Z,1.48
2023-03-07T18:43:47.882Z,1.40
2023-03-07T18:46:16.166Z,1.60
2023-03-07T18:48:43.896Z,1.30
2023-03-07T18:51:12.236Z,1.80
2023-03-07T18:53:40.469Z,1.73
2023-03-07T18:56:09.069Z,2.10
2023-03-07T18:58:38.233Z,1.90
2023-03-07T19:01:13.057Z,1.70
2023-03-07T19:03:40.630Z,1.52
2023-03-07T19:06:08.279Z,1.58
2023-03-07T19:08:36.093Z,1.50
2023-03-07T19:11:04.043Z,1.25
2023-03-07T19:13:31.492Z,2.10
2023-03-07T19:16:03.946Z,1.77
2023-03-07T19:18:31.473Z,1.63
2023-03-07T19:20:58.959Z,2.15
2023-03-07T19:23:26.475Z,1.80
2023-03-07T19:25:54.014Z,2.50
2023-03-07T19:28:21.529Z,2.10
2023-03-07T19:30:49.029Z,2.30
2023-03-07T19:33:17.846Z,3.08
2023-03-07T19:35:45.572Z,1.70
2023-03-07T19:38:13.081Z,2.00
2023-03-07T19:40:40.590Z,2.60
2023-03-07T19:43:08.143Z,2.17
2023-03-07T19:45:40.191Z,1.38
2023-03-07T19:48:07.813Z,2.50
2023-03-07T19:50:40.946Z,2.70
2023-03-07T19:53:08.454Z,2.90
2023-03-07T19:55:35.921Z,2.47
2023-03-07T19:58:03.546Z,2.63
2023-03-07T20:00:31.235Z,2.92
2023-03-07T20:03:00.043Z,3.03
2023-03-07T20:05:27.763Z,2.70
2023-03-07T20:07:57.080Z,3.35
2023-03-07T20:10:24.674Z,3.22
2023-03-07T20:12:53.172Z,3.25
2023-03-07T20:15:20.792Z,2.33
2023-03-07T20:17:48.606Z,3.30
2023-03-07T20:20:16.504Z,3.15
2023-03-07T20:22:44.157Z,3.10
2023-03-07T20:25:12.972Z,3.33
2023-03-07T20:27:41.086Z,3.53
2023-03-07T20:30:09.357Z,3.42
2023-03-07T20:32:36.886Z,3.75
2023-03-07T20:35:04.748Z,3.22
2023-03-07T20:37:33.805Z,2.92
2023-03-07T20:40:04.539Z,3.53
2023-03-07T20:42:34.243Z,2.92
2023-03-07T20:45:01.734Z,3.80
2023-03-07T20:47:29.317Z,3.47
2023-03-07T20:49:56.797Z,3.63
2023-03-07T20:52:25.233Z,4.05
2023-03-07T20:54:52.707Z,3.92
2023-03-07T20:57:20.340Z,3.33
2023-03-07T20:59:49.510Z,4.00
2023-03-07T21:02:17.047Z,3.45
2023-03-07T21:04:44.485Z,3.70
2023-03-07T21:07:12.131Z,3.83
2023-03-07T21:09:39.615Z,4.15
2023-03-07T21:12:08.509Z,4.30
2023-03-07T21:14:35.974Z,4.38
2023-03-07T21:17:04.902Z,3.95
2023-03-07T21:19:32.381Z,3.88
2023-03-07T21:22:00.228Z,3.38
2023-03-07T21:24:27.731Z,4.05
2023-03-07T21:26:55.486Z,3.58
2023-03-07T21:29:22.949Z,3.20
2023-03-07T21:31:50.573Z,4.15
2023-03-07T21:34:19.549Z,3.45
2023-03-07T21:36:47.913Z,3.08
2023-03-07T21:39:15.439Z,3.58
2023-03-07T21:41:42.961Z,3.72
2023-03-07T21:44:10.657Z,3.35
2023-03-07T21:46:38.211Z,3.33
2023-03-07T21:49:05.736Z,2.90
2023-03-07T21:51:34.881Z,3.35
2023-03-07T21:54:02.392Z,3.15
2023-03-07T21:56:29.945Z,2.90
2023-03-07T21:58:57.478Z,2.70
2023-03-07T22:01:25.907Z,2.83
2023-03-07T22:03:53.853Z,2.88
2023-03-07T22:06:21.902Z,2.90
2023-03-07T22:08:50.768Z,2.28
2023-03-07T22:11:18.303Z,2.30
2023-03-07T22:13:45.798Z,2.83
2023-03-07T22:16:14.215Z,2.38
2023-03-07T22:18:41.757Z,2.47
2023-03-07T22:21:09.826Z,2.03
2023-03-07T22:23:37.720Z,1.83
2023-03-07T22:26:08.158Z,2.30
2023-03-07T22:28:36.015Z,2.55
2023-03-07T22:31:04.489Z,2.33
2023-03-07T22:33:32.153Z,1.85
2023-03-07T22:36:00.346Z,2.03
2023-03-07T22:38:28.982Z,1.98
2023-03-07T22:41:01.038Z,2.03
2023-03-07T22:43:30.972Z,1.85
2023-03-07T22:45:58.536Z,1.58
2023-03-07T22:48:26.080Z,1.92
2023-03-07T22:50:53.764Z,2.10
2023-03-07T22:53:21.614Z,1.88
2023-03-07T22:55:49.097Z,1.88
2023-03-07T22:58:16.996Z,1.40
2023-03-07T23:00:46.096Z,1.60
2023-03-07T23:03:13.726Z,1.85
2023-03-07T23:05:41.312Z,1.80
2023-03-07T23:08:08.850Z,1.55
2023-03-07T23:10:36.559Z,1.70
2023-03-07T23:13:04.037Z,1.50
2023-03-07T23:15:31.617Z,1.88
2023-03-07T23:18:00.528Z,1.45
2023-03-07T23:20:30.145Z,1.10
2023-03-07T23:22:57.682Z,1.58
2023-03-07T23:25:25.207Z,1.27
2023-03-07T23:27:52.760Z,1.40
2023-03-07T23:30:21.721Z,1.80
2023-03-07T23:32:49.183Z,1.42
2023-03-07T23:35:18.106Z,1.35
2023-03-07T23:37:45.602Z,1.33
2023-03-07T23:40:13.592Z,1.20
2023-03-07T23:42:41.155Z,1.50
2023-03-07T23:45:09.182Z,1.23
2023-03-07T23:47:36.692Z,1.52
2023-03-07T23:50:04.391Z,1.58
2023-03-07T23:52:33.253Z,1.35
2023-03-07T23:55:00.765Z,2.08
2023-03-07T23:57:28.260Z,1.60
2023-03-07T23:59:55.774Z,1.60
